createdAt,value
2023-03-06T00:00:40.740Z,59.09
2023-03-06T00:06:40.329Z,59.68
2023-03-06T00:13:57.944Z,60.28
2023-03-06T00:18:42.468Z,60.92
2023-03-06T00:25:10.525Z,60.85
2023-03-06T00:48:20.185Z,60.40
2023-03-06T00:53:23.411Z,60.03
2023-03-06T00:58:27.312Z,60.28
2023-03-06T01:03:31.887Z,59.83
2023-03-06T01:08:34.377Z,60.21
2023-03-06T01:13:42.731Z,60.13
2023-03-06T01:18:41.783Z,60.25
2023-03-06T01:24:08.895Z,60.11
2023-03-06T01:34:43.925Z,60.38
2023-03-06T01:39:56.246Z,59.94
2023-03-06T01:45:08.532Z,60.33
2023-03-06T01:56:38.643Z,60.56
2023-03-06T02:01:41.307Z,60.53
2023-03-06T02:07:00.700Z,60.60
2023-03-06T02:12:21.568Z,60.18
2023-03-06T02:17:28.403Z,60.78
2023-03-06T02:22:24.827Z,60.89
2023-03-06T02:27:20.835Z,60.64
2023-03-06T02:32:17.361Z,60.34
2023-03-06T02:37:20.312Z,60.45
2023-03-06T02:42:25.609Z,60.10
2023-03-06T02:54:50.922Z,60.27
2023-03-06T03:00:55.440Z,61.00
2023-03-06T03:06:05.230Z,61.73
2023-03-06T03:11:24.129Z,61.62
2023-03-06T03:17:15.918Z,62.05
2023-03-06T03:22:31.592Z,62.37
2023-03-06T03:27:42.915Z,62.49
2023-03-06T03:39:34.970Z,62.74
2023-03-06T03:44:32.824Z,62.89
2023-03-06T03:49:30.829Z,62.67
2023-03-06T03:55:12.179Z,62.77
2023-03-06T04:13:18.259Z,62.59
2023-03-06T04:18:37.782Z,62.87
2023-03-06T04:30:19.192Z,62.80
2023-03-06T04:35:37.762Z,62.48
2023-03-06T04:41:14.288Z,62.63
2023-03-06T04:47:23.576Z,62.79
2023-03-06T04:53:40.541Z,62.97
2023-03-06T04:59:55.147Z,62.98
2023-03-06T05:18:09.411Z,63.87
2023-03-06T05:34:50.857Z,64.73
2023-03-06T05:40:20.918Z,64.61
2023-03-06T05:46:04.379Z,65.05
2023-03-06T05:51:38.810Z,66.30
2023-03-06T05:56:43.369Z,67.25
2023-03-06T06:01:58.627Z,67.13
2023-03-06T06:07:07.877Z,67.83
2023-03-06T06:20:16.201Z,69.55
2023-03-06T06:45:33.521Z,70.88
2023-03-06T06:58:50.569Z,70.46
2023-03-06T08:33:51.087Z,63.74
2023-03-06T08:38:44.441Z,62.58
2023-03-06T08:43:40.407Z,62.32
2023-03-06T08:48:33.944Z,61.45
2023-03-06T08:53:42.076Z,60.97
2023-03-06T08:58:36.241Z,60.43
2023-03-06T09:03:32.513Z,58.68
2023-03-06T09:08:25.853Z,57.64
2023-03-06T09:13:20.604Z,57.86
2023-03-06T09:18:16.261Z,53.04
2023-03-06T09:23:13.433Z,52.21
2023-03-06T09:28:11.729Z,50.16
2023-03-06T09:33:07.065Z,47.86
2023-03-06T09:38:02.782Z,47.36
2023-03-06T09:43:00.378Z,44.84
2023-03-06T09:48:01.950Z,44.40
2023-03-06T09:53:08.530Z,43.95
2023-03-06T09:58:08.940Z,44.18
2023-03-06T10:03:19.096Z,44.58
2023-03-06T10:08:25.119Z,46.38
2023-03-06T10:13:26.329Z,46.43
2023-03-06T10:18:21.704Z,47.62
2023-03-06T10:23:31.494Z,46.88
2023-03-06T10:28:30.767Z,45.41
2023-03-06T10:33:34.963Z,46.60
2023-03-06T10:38:37.912Z,46.19
2023-03-06T10:43:36.476Z,44.50
2023-03-06T10:48:32.959Z,45.45
2023-03-06T10:53:30.472Z,44.09
2023-03-06T10:58:26.810Z,44.04
2023-03-06T11:03:24.191Z,44.17
2023-03-06T11:08:23.470Z,45.37
2023-03-06T11:13:27.654Z,45.31
2023-03-06T11:18:35.289Z,43.05
2023-03-06T11:23:40.581Z,43.45
2023-03-06T11:28:40.916Z,42.23
2023-03-06T11:33:37.634Z,42.33
2023-03-06T11:38:41.760Z,42.71
2023-03-06T11:43:51.044Z,43.57
2023-03-06T11:48:52.431Z,40.30
2023-03-06T11:53:45.811Z,41.71
2023-03-06T11:59:01.930Z,40.27
2023-03-06T12:04:27.007Z,38.14
2023-03-06T12:09:40.856Z,39.23
2023-03-06T12:14:52.391Z,38.94
2023-03-06T12:19:59.591Z,40.32
2023-03-06T12:25:10.445Z,39.76
2023-03-06T12:30:30.351Z,37.92
2023-03-06T12:35:50.545Z,40.52
2023-03-06T12:41:14.835Z,39.84
2023-03-06T12:46:21.648Z,40.58
2023-03-06T12:51:24.123Z,39.16
2023-03-06T12:56:19.702Z,37.84
2023-03-06T13:01:24.157Z,34.48
2023-03-06T13:06:34.170Z,34.20
2023-03-06T13:12:01.690Z,35.09
2023-03-06T13:16:56.417Z,35.31
2023-03-06T13:22:27.949Z,32.24
2023-03-06T13:27:46.137Z,31.59
2023-03-06T13:32:43.364Z,32.12
2023-03-06T13:37:50.997Z,33.39
2023-03-06T13:43:05.007Z,33.87
2023-03-06T13:48:37.503Z,35.02
2023-03-06T13:53:36.410Z,35.08
2023-03-06T13:58:45.950Z,35.36
2023-03-06T14:04:10.288Z,35.77
2023-03-06T14:09:06.402Z,36.50
2023-03-06T14:14:00.892Z,35.58
2023-03-06T14:18:57.344Z,37.00
2023-03-06T14:24:03.145Z,36.92
2023-03-06T14:28:58.469Z,36.62
2023-03-06T14:33:54.344Z,36.11
2023-03-06T14:39:04.412Z,36.64
2023-03-06T14:44:20.623Z,36.68
2023-03-06T14:49:40.631Z,36.10
2023-03-06T14:54:50.793Z,37.11
2023-03-06T15:00:05.585Z,36.61
2023-03-06T15:05:22.776Z,37.08
2023-03-06T15:10:31.664Z,36.68
2023-03-06T15:15:45.167Z,36.60
2023-03-06T15:20:58.954Z,37.13
2023-03-06T15:26:37.437Z,37.32
2023-03-06T15:31:39.757Z,37.93
2023-03-06T15:36:44.706Z,38.11
2023-03-06T15:41:43.271Z,38.81
2023-03-06T15:46:37.643Z,39.44
2023-03-06T16:11:07.833Z,41.71
2023-03-06T16:16:22.385Z,42.00
2023-03-06T16:21:27.341Z,42.75
2023-03-06T16:26:32.508Z,42.82
2023-03-06T16:31:28.206Z,44.61
2023-03-06T16:36:26.612Z,45.41
2023-03-06T16:41:21.085Z,45.60
2023-03-06T16:46:35.905Z,46.44
2023-03-06T16:51:30.298Z,47.58
2023-03-06T16:56:23.687Z,48.74
2023-03-06T17:01:30.247Z,49.24
2023-03-06T17:06:25.977Z,49.41
2023-03-06T17:11:24.096Z,50.45
2023-03-06T17:16:18.140Z,50.43
2023-03-06T17:21:15.747Z,50.71
2023-03-06T17:26:10.701Z,51.04
2023-03-06T17:31:05.427Z,51.63
2023-03-06T17:36:00.527Z,53.06
2023-03-06T17:40:55.398Z,53.81
2023-03-06T17:45:51.339Z,54.84
2023-03-06T17:50:53.618Z,53.87
2023-03-06T17:55:52.880Z,55.06
2023-03-06T18:00:48.422Z,55.64
2023-03-06T18:05:43.513Z,56.56
2023-03-06T18:10:39.440Z,57.06
2023-03-06T18:15:34.844Z,57.26
2023-03-06T18:20:59.027Z,57.55
2023-03-06T18:25:54.879Z,58.53
2023-03-06T18:30:48.338Z,59.17
2023-03-06T18:35:49.674Z,59.63
2023-03-06T18:40:52.647Z,58.09
2023-03-06T18:45:56.731Z,57.59
2023-03-06T18:50:55.573Z,57.54
2023-03-06T18:55:49.422Z,58.17
2023-03-06T19:00:43.498Z,57.53
2023-03-06T19:05:41.700Z,59.20
2023-03-06T19:10:37.441Z,59.19
2023-03-06T19:15:30.823Z,57.80
2023-03-06T19:20:27.070Z,59.74
2023-03-06T19:25:34.104Z,60.01
2023-03-06T19:30:28.789Z,60.68
2023-03-06T19:35:23.681Z,59.77
2023-03-06T19:40:17.342Z,59.91
2023-03-06T19:45:12.984Z,58.02
2023-03-06T19:50:11.559Z,56.92
2023-03-06T19:55:06.356Z,58.05
2023-03-06T19:59:59.678Z,57.46
2023-03-06T20:04:55.779Z,54.61
2023-03-06T20:10:08.609Z,55.44
2023-03-06T20:20:41.432Z,54.78
2023-03-06T20:25:38.452Z,56.05
2023-03-06T20:30:40.300Z,55.80
2023-03-06T20:36:00.829Z,56.90
2023-03-06T20:42:07.210Z,58.55
2023-03-06T20:47:05.608Z,59.92
2023-03-06T20:51:58.916Z,61.51
2023-03-06T20:56:52.419Z,62.51
2023-03-06T21:01:48.150Z,62.58
2023-03-06T21:06:47.138Z,62.03
2023-03-06T21:11:40.434Z,62.01
2023-03-06T21:16:33.909Z,63.40
2023-03-06T21:21:32.949Z,64.42
2023-03-06T21:26:30.491Z,64.60
2023-03-06T21:31:23.964Z,64.89
2023-03-06T21:36:18.515Z,65.61
2023-03-06T21:41:13.414Z,66.28
2023-03-06T21:46:09.064Z,66.07
2023-03-06T21:51:07.797Z,66.50
2023-03-06T21:56:04.071Z,66.40
2023-03-06T22:00:57.515Z,66.74
2023-03-06T22:05:53.232Z,66.00
2023-03-06T22:10:48.507Z,66.30
2023-03-06T22:15:49.734Z,65.60
2023-03-06T22:20:43.081Z,66.33
2023-03-06T22:25:37.854Z,66.01
2023-03-06T22:30:31.100Z,66.25
2023-03-06T22:35:36.142Z,66.98
2023-03-06T22:40:29.628Z,67.61
2023-03-06T22:45:42.759Z,68.05
2023-03-06T22:50:39.050Z,68.70
2023-03-06T22:55:32.263Z,69.52
2023-03-06T23:00:30.465Z,69.00
2023-03-06T23:05:27.900Z,68.94
2023-03-06T23:10:22.567Z,68.97
2023-03-06T23:15:38.246Z,69.29
2023-03-06T23:20:50.327Z,69.61
2023-03-06T23:26:02.278Z,70.86
2023-03-06T23:30:57.019Z,71.05
2023-03-06T23:35:52.225Z,68.43
2023-03-06T23:40:45.442Z,66.73
2023-03-06T23:45:40.932Z,66.04
2023-03-06T23:51:03.323Z,65.70
2023-03-06T23:55:56.490Z,65.13
